createdAt,value
2018-11-14T00:00:03.906Z,29.23
2018-11-14T00:02:32.174Z,22.77
2018-11-14T00:05:00.453Z,18.80
2018-11-14T00:07:28.714Z,24.63
2018-11-14T00:09:57.045Z,23.73
2018-11-14T00:12:25.274Z,17.70
2018-11-14T00:14:53.561Z,16.00
2018-11-14T00:17:21.842Z,14.17
2018-11-14T00:19:50.386Z,15.13
2018-11-14T00:22:18.663Z,25.00
2018-11-14T00:24:47.000Z,19.63
2018-11-14T00:27:15.238Z,17.53
2018-11-14T00:29:43.728Z,18.57
2018-11-14T00:32:12.042Z,13.73
2018-11-14T00:34:40.383Z,24.07
2018-11-14T00:37:08.642Z,23.03
2018-11-14T00:39:36.961Z,23.37
2018-11-14T00:42:05.362Z,20.63
2018-11-14T00:44:33.641Z,16.97
2018-11-14T00:47:02.064Z,16.80
2018-11-14T00:49:30.342Z,28.33
2018-11-14T00:51:58.610Z,24.50
2018-11-14T00:54:26.906Z,21.33
2018-11-14T00:56:55.166Z,17.07
2018-11-14T00:59:23.442Z,29.57
2018-11-14T01:01:51.754Z,16.73
2018-11-14T01:04:20.882Z,18.13
2018-11-14T01:06:49.155Z,18.90
2018-11-14T01:09:17.778Z,23.50
2018-11-14T01:11:46.002Z,15.10
2018-11-14T01:14:14.366Z,18.93
2018-11-14T01:16:42.874Z,29.48
2018-11-14T01:19:11.233Z,19.83
2018-11-14T01:21:39.734Z,18.77
2018-11-14T01:24:08.634Z,26.23
2018-11-14T01:26:37.014Z,16.37
2018-11-14T01:29:05.471Z,21.17
2018-11-14T01:31:33.794Z,25.63
2018-11-14T01:34:02.069Z,16.03
2018-11-14T01:36:30.339Z,31.33
2018-11-14T01:38:58.602Z,24.83
2018-11-14T01:41:26.886Z,14.30
2018-11-14T01:43:55.166Z,24.30
2018-11-14T01:46:23.451Z,20.23
2018-11-14T01:48:51.731Z,18.63
2018-11-14T01:51:19.993Z,19.87
2018-11-14T01:53:48.287Z,20.60
2018-11-14T01:56:16.653Z,22.27
2018-11-14T01:58:44.929Z,14.97
2018-11-14T02:01:13.198Z,16.63
2018-11-14T02:03:41.466Z,20.17
2018-11-14T02:06:09.744Z,23.37
2018-11-14T02:08:38.054Z,17.83
2018-11-14T02:11:06.356Z,24.87
2018-11-14T02:13:34.616Z,13.17
2018-11-14T02:16:03.022Z,19.43
2018-11-14T02:18:31.302Z,16.40
2018-11-14T02:20:59.566Z,15.93
2018-11-14T02:23:27.886Z,27.83
2018-11-14T02:25:56.174Z,25.77
2018-11-14T02:28:24.457Z,16.07
2018-11-14T02:30:52.775Z,33.77
2018-11-14T02:33:21.039Z,21.60
2018-11-14T02:35:49.303Z,18.83
2018-11-14T02:38:17.714Z,15.60
2018-11-14T02:40:45.986Z,22.83
2018-11-14T02:43:14.345Z,19.43
2018-11-14T02:45:42.842Z,16.90
2018-11-14T02:48:11.110Z,21.23
2018-11-14T02:50:39.372Z,18.97
2018-11-14T02:53:07.882Z,24.43
2018-11-14T02:55:36.154Z,18.83
2018-11-14T02:58:04.433Z,22.20
2018-11-14T03:00:32.810Z,14.57
2018-11-14T03:03:01.086Z,24.30
2018-11-14T03:05:29.354Z,15.90
2018-11-14T03:07:57.645Z,18.33
2018-11-14T03:10:25.914Z,18.80
2018-11-14T03:12:54.186Z,24.17
2018-11-14T03:15:23.594Z,14.50
2018-11-14T03:17:52.004Z,22.83
2018-11-14T03:20:21.295Z,12.47
2018-11-14T03:22:49.753Z,13.53
2018-11-14T03:25:18.426Z,21.77
2018-11-14T03:27:46.749Z,15.37
2018-11-14T03:30:18.215Z,29.50
2018-11-14T03:32:46.569Z,27.33
2018-11-14T03:35:15.369Z,20.90
2018-11-14T03:37:43.822Z,14.87
2018-11-14T03:40:13.692Z,13.70
2018-11-14T03:42:41.994Z,22.00
2018-11-14T03:45:11.634Z,24.90
2018-11-14T03:47:40.209Z,14.00
2018-11-14T03:50:09.233Z,16.63
2018-11-14T03:52:37.683Z,15.27
2018-11-14T03:55:06.278Z,11.63
2018-11-14T03:57:34.610Z,18.47
2018-11-14T04:00:02.922Z,24.87
2018-11-14T04:02:31.194Z,24.03
2018-11-14T04:04:59.497Z,14.80
2018-11-14T04:07:27.822Z,18.03
2018-11-14T04:09:56.086Z,15.50
2018-11-14T04:12:24.403Z,19.63
2018-11-14T04:14:52.661Z,23.20
2018-11-14T04:17:20.926Z,18.87
2018-11-14T04:19:49.214Z,19.47
2018-11-14T04:22:17.478Z,16.03
2018-11-14T04:24:45.837Z,13.77
2018-11-14T04:27:14.142Z,11.33
2018-11-14T04:29:42.619Z,12.87
2018-11-14T04:32:10.884Z,12.97
2018-11-14T04:34:39.147Z,13.80
2018-11-14T04:37:07.411Z,18.17
2018-11-14T04:39:35.732Z,21.80
2018-11-14T04:42:04.487Z,18.83
2018-11-14T04:44:32.745Z,16.03
2018-11-14T04:47:01.078Z,30.23
2018-11-14T04:49:29.334Z,22.20
2018-11-14T04:51:57.593Z,20.27
2018-11-14T04:54:25.908Z,28.17
2018-11-14T04:56:54.126Z,23.17
2018-11-14T04:59:22.502Z,25.47
2018-11-14T05:01:50.951Z,22.27
2018-11-14T05:04:19.206Z,21.17
2018-11-14T05:06:47.793Z,22.57
2018-11-14T05:09:16.062Z,21.67
2018-11-14T05:11:44.330Z,17.67
2018-11-14T05:14:12.626Z,40.43
2018-11-14T05:16:40.894Z,34.63
2018-11-14T05:19:09.172Z,26.00
2018-11-14T05:21:37.466Z,24.97
2018-11-14T05:24:05.758Z,22.97
2018-11-14T05:26:34.031Z,27.70
2018-11-14T05:29:02.322Z,31.10
2018-11-14T05:31:30.650Z,26.53
2018-11-14T05:33:58.914Z,33.37
2018-11-14T05:36:27.403Z,21.17
2018-11-14T05:38:55.658Z,26.73
2018-11-14T05:41:23.929Z,31.33
2018-11-14T05:43:52.224Z,24.17
2018-11-14T05:46:20.491Z,30.87
2018-11-14T05:48:48.750Z,23.17
2018-11-14T05:51:17.046Z,28.50
2018-11-14T05:53:45.306Z,26.37
2018-11-14T05:56:13.581Z,38.33
2018-11-14T05:58:41.945Z,28.87
2018-11-14T06:01:10.214Z,35.47
2018-11-14T06:03:38.473Z,31.33
2018-11-14T06:06:06.806Z,40.87
2018-11-14T06:08:35.065Z,37.17
2018-11-14T06:11:03.337Z,38.87
2018-11-14T06:13:31.670Z,36.13
2018-11-14T06:15:59.975Z,29.37
2018-11-14T06:18:28.218Z,37.47
2018-11-14T06:20:56.683Z,39.43
2018-11-14T06:23:24.961Z,39.43
2018-11-14T06:25:53.210Z,36.97
2018-11-14T06:28:21.523Z,40.53
2018-11-14T06:30:49.790Z,41.33
2018-11-14T06:33:18.061Z,49.70
2018-11-14T06:35:46.442Z,40.87
2018-11-14T06:38:14.699Z,49.57
2018-11-14T06:40:43.938Z,46.33
2018-11-14T06:43:12.250Z,52.27
2018-11-14T06:45:40.521Z,42.53
2018-11-14T06:48:08.800Z,57.30
2018-11-14T06:50:37.174Z,48.97
2018-11-14T06:53:06.672Z,55.87
2018-11-14T06:55:34.940Z,41.70
2018-11-14T06:58:03.362Z,64.40
2018-11-14T07:00:33.563Z,48.67
2018-11-14T07:03:02.947Z,52.97
2018-11-14T07:05:31.450Z,51.93
2018-11-14T07:07:59.665Z,49.43
2018-11-14T07:10:30.526Z,59.70
2018-11-14T07:13:05.534Z,56.07
2018-11-14T07:15:34.653Z,50.33
2018-11-14T07:18:03.002Z,45.37
2018-11-14T07:20:33.577Z,53.17
2018-11-14T07:23:01.846Z,54.27
2018-11-14T07:25:30.150Z,52.80
2018-11-14T07:27:58.514Z,55.70
2018-11-14T07:30:27.993Z,47.63
2018-11-14T07:32:57.473Z,50.60
2018-11-14T07:35:25.953Z,52.47
2018-11-14T07:39:01.541Z,48.33
2018-11-14T07:41:35.190Z,62.40
2018-11-14T07:44:03.514Z,66.87
2018-11-14T07:46:32.666Z,44.97
2018-11-14T07:49:01.092Z,47.43
2018-11-14T07:51:29.577Z,48.00
2018-11-14T07:53:58.198Z,49.13
2018-11-14T07:56:26.642Z,44.00
2018-11-14T07:58:54.934Z,41.30
2018-11-14T08:01:23.286Z,43.73
2018-11-14T08:03:51.662Z,45.00
2018-11-14T08:06:20.057Z,53.50
2018-11-14T08:08:48.525Z,63.20
2018-11-14T08:11:16.863Z,49.87
2018-11-14T08:13:46.410Z,45.23
2018-11-14T08:16:14.894Z,59.07
2018-11-14T08:18:43.261Z,49.60
2018-11-14T08:21:11.625Z,52.50
2018-11-14T08:23:39.902Z,48.90
2018-11-14T08:26:08.195Z,44.23
2018-11-14T08:28:36.481Z,42.87
2018-11-14T08:31:04.774Z,46.90
2018-11-14T08:33:33.058Z,52.03
2018-11-14T08:36:01.349Z,47.75
2018-11-14T08:38:29.641Z,51.53
2018-11-14T08:40:57.923Z,53.40
2018-11-14T08:43:26.182Z,52.80
2018-11-14T08:45:54.589Z,50.40
2018-11-14T08:48:22.889Z,48.93
2018-11-14T08:50:51.157Z,48.13
2018-11-14T08:53:19.454Z,44.83
2018-11-14T08:55:47.734Z,43.03
2018-11-14T08:58:15.998Z,47.07
2018-11-14T09:00:44.446Z,54.30
2018-11-14T09:03:13.771Z,39.60
2018-11-14T09:05:42.049Z,39.30
2018-11-14T09:08:10.350Z,34.27
2018-11-14T09:10:38.657Z,39.20
2018-11-14T09:13:12.015Z,42.30
2018-11-14T09:15:40.532Z,38.43
2018-11-14T09:18:08.956Z,37.37
2018-11-14T09:20:37.230Z,35.70
2018-11-14T09:23:06.211Z,36.17
2018-11-14T09:25:34.568Z,48.30
2018-11-14T09:28:03.319Z,39.17
2018-11-14T09:30:31.739Z,35.40
2018-11-14T09:33:00.054Z,44.10
2018-11-14T09:35:28.946Z,48.00
2018-11-14T09:37:58.541Z,50.07
2018-11-14T09:40:27.917Z,42.20
2018-11-14T09:42:56.194Z,39.27
2018-11-14T09:45:25.829Z,37.73
2018-11-14T09:47:54.141Z,43.50
2018-11-14T09:50:23.702Z,44.87
2018-11-14T09:52:53.358Z,41.00
2018-11-14T09:55:21.689Z,40.40
2018-11-14T09:57:50.049Z,42.80
2018-11-14T10:00:20.194Z,42.17
2018-11-14T10:02:50.093Z,42.43
2018-11-14T10:05:19.573Z,46.45
2018-11-14T10:07:47.935Z,46.50
2018-11-14T10:10:17.425Z,45.40
2018-11-14T10:12:45.734Z,45.43
2018-11-14T10:15:18.157Z,44.00
2018-11-14T10:17:46.933Z,45.47
2018-11-14T10:20:17.466Z,43.07
2018-11-14T10:22:46.070Z,40.03
2018-11-14T10:25:15.138Z,43.00
2018-11-14T10:27:44.026Z,37.77
2018-11-14T10:30:15.786Z,41.03
2018-11-14T10:32:44.778Z,42.67
2018-11-14T10:35:13.174Z,37.63
2018-11-14T10:37:41.947Z,44.03
2018-11-14T10:40:13.634Z,43.50
2018-11-14T10:42:42.758Z,38.23
2018-11-14T10:45:12.430Z,41.13
2018-11-14T10:47:41.114Z,42.80
2018-11-14T10:50:12.730Z,42.00
2018-11-14T10:52:41.001Z,41.77
2018-11-14T10:55:10.633Z,40.70
2018-11-14T10:57:39.213Z,39.70
2018-11-14T11:00:21.048Z,38.90
2018-11-14T11:02:54.534Z,42.37
2018-11-14T11:05:28.229Z,49.73
2018-11-14T11:08:01.865Z,36.83
2018-11-14T11:10:35.262Z,39.97
2018-11-14T11:13:09.241Z,52.40
2018-11-14T11:15:42.932Z,44.53
2018-11-14T11:18:14.717Z,41.88
2018-11-14T11:20:43.164Z,43.97
2018-11-14T11:23:11.639Z,39.60
2018-11-14T11:25:40.217Z,47.27
2018-11-14T11:28:08.506Z,44.87
2018-11-14T11:30:37.026Z,43.10
2018-11-14T11:33:06.785Z,46.33
2018-11-14T11:35:35.105Z,51.40
2018-11-14T11:38:03.711Z,44.50
2018-11-14T11:40:32.200Z,43.90
2018-11-14T11:43:00.743Z,47.93
2018-11-14T11:45:29.823Z,49.13
2018-11-14T11:47:58.105Z,45.10
2018-11-14T11:50:26.554Z,56.07
2018-11-14T11:52:55.048Z,53.47
2018-11-14T11:55:23.321Z,64.00
2018-11-14T11:57:51.639Z,51.77
2018-11-14T12:00:20.079Z,57.37
2018-11-14T12:02:48.214Z,53.67
2018-11-14T12:05:16.487Z,69.53
2018-11-14T12:07:44.942Z,48.43
2018-11-14T12:10:14.237Z,58.23
2018-11-14T12:12:43.446Z,66.77
2018-11-14T12:15:12.806Z,60.57
2018-11-14T12:17:41.841Z,54.27
2018-11-14T12:20:11.613Z,55.90
2018-11-14T12:22:40.526Z,53.60
2018-11-14T12:25:10.726Z,57.90
2018-11-14T12:27:39.098Z,55.40
2018-11-14T12:30:10.162Z,56.60
2018-11-14T12:32:38.548Z,49.43
2018-11-14T12:35:08.123Z,55.33
2018-11-14T12:37:36.402Z,52.20
2018-11-14T12:40:06.791Z,62.20
2018-11-14T12:42:35.734Z,62.20
2018-11-14T12:45:06.053Z,58.00
2018-11-14T12:47:34.725Z,59.70
2018-11-14T12:50:05.066Z,59.30
2018-11-14T12:52:34.028Z,57.83
2018-11-14T12:55:04.458Z,77.57
2018-11-14T12:57:35.354Z,66.57
2018-11-14T13:00:06.636Z,67.47
2018-11-14T13:02:35.766Z,67.87
2018-11-14T13:05:06.318Z,64.13
2018-11-14T13:07:37.197Z,78.53
2018-11-14T13:10:07.334Z,64.23
2018-11-14T13:12:36.282Z,73.07
2018-11-14T13:15:06.846Z,67.60
2018-11-14T13:17:36.634Z,65.93
2018-11-14T13:20:07.910Z,68.20
2018-11-14T13:22:36.649Z,62.60
2018-11-14T13:25:07.650Z,68.83
2018-11-14T13:27:36.407Z,70.60
2018-11-14T13:30:07.662Z,72.70
2018-11-14T13:32:36.629Z,73.87
2018-11-14T13:35:07.761Z,79.47
2018-11-14T13:37:37.008Z,66.30
2018-11-14T13:40:07.178Z,54.73
2018-11-14T13:42:36.831Z,70.00
2018-11-14T13:45:07.369Z,56.07
2018-11-14T13:47:36.670Z,72.03
2018-11-14T13:50:06.074Z,59.93
2018-11-14T13:52:34.426Z,54.90
2018-11-14T13:55:02.703Z,53.00
2018-11-14T13:57:31.065Z,68.13
2018-11-14T13:59:59.354Z,63.77
2018-11-14T14:02:27.630Z,89.20
2018-11-14T14:04:55.897Z,60.87
2018-11-14T14:07:24.226Z,59.97
2018-11-14T14:09:52.515Z,64.93
2018-11-14T14:12:20.780Z,62.03
2018-11-14T14:14:49.091Z,62.20
2018-11-14T14:17:17.369Z,72.30
2018-11-14T14:19:45.681Z,59.97
2018-11-14T14:22:14.431Z,75.33
2018-11-14T14:24:42.626Z,52.77
2018-11-14T14:27:10.891Z,56.97
2018-11-14T14:29:39.178Z,62.07
2018-11-14T14:32:07.462Z,48.27
2018-11-14T14:34:35.838Z,59.00
2018-11-14T14:37:04.154Z,53.03
2018-11-14T14:39:32.422Z,49.53
2018-11-14T14:42:00.710Z,69.13
2018-11-14T14:44:29.150Z,55.57
2018-11-14T14:46:57.410Z,56.13
2018-11-14T14:49:25.701Z,50.40
2018-11-14T14:51:53.966Z,51.60
2018-11-14T14:54:22.246Z,51.10
2018-11-14T14:56:50.538Z,52.17
2018-11-14T14:59:18.818Z,51.90
2018-11-14T15:01:47.098Z,45.67
2018-11-14T15:04:15.419Z,49.67
2018-11-14T15:06:44.767Z,50.90
2018-11-14T15:09:13.053Z,48.97
2018-11-14T15:11:42.506Z,54.40
2018-11-14T15:14:10.782Z,49.93
2018-11-14T15:16:39.074Z,58.80
2018-11-14T15:19:07.598Z,46.20
2018-11-14T15:21:35.897Z,53.60
2018-11-14T15:24:04.191Z,55.40
2018-11-14T15:26:32.463Z,55.73
2018-11-14T15:29:00.888Z,62.90
2018-11-14T15:31:29.035Z,56.67
2018-11-14T15:33:57.402Z,61.57
2018-11-14T15:36:25.702Z,67.67
2018-11-14T15:38:53.985Z,60.70
2018-11-14T15:41:22.243Z,59.70
2018-11-14T15:43:50.526Z,59.50
2018-11-14T15:46:18.827Z,59.70
2018-11-14T15:48:47.169Z,48.27
2018-11-14T15:51:15.430Z,58.93
2018-11-14T15:56:47.045Z,68.40
2018-11-14T15:59:15.366Z,61.90
2018-11-14T16:01:43.700Z,71.63
2018-11-14T16:04:12.358Z,66.43
2018-11-14T16:06:40.667Z,61.37
2018-11-14T16:09:11.313Z,72.70
2018-11-14T16:11:39.787Z,66.97
2018-11-14T16:17:10.909Z,64.47
2018-11-14T16:19:39.374Z,62.57
2018-11-14T16:22:07.685Z,58.03
2018-11-14T16:24:36.086Z,61.33
2018-11-14T16:27:05.272Z,55.87
2018-11-14T16:29:34.710Z,72.10
2018-11-14T16:32:04.405Z,75.93
2018-11-14T16:34:34.230Z,66.33
2018-11-14T16:37:04.137Z,78.65
2018-11-14T16:39:44.888Z,70.97
2018-11-14T16:42:25.005Z,61.67
2018-11-14T16:45:05.814Z,63.40
2018-11-14T16:47:34.078Z,69.10
2018-11-14T16:50:02.348Z,66.33
2018-11-14T16:52:30.838Z,75.07
2018-11-14T16:54:59.106Z,62.10
2018-11-14T16:57:27.718Z,63.97
2018-11-14T16:59:56.042Z,66.67
2018-11-14T17:02:24.318Z,59.47
2018-11-14T17:04:52.655Z,60.10
2018-11-14T17:07:21.320Z,70.10
2018-11-14T17:09:49.594Z,55.83
2018-11-14T17:12:17.905Z,66.40
2018-11-14T17:14:46.535Z,72.10
2018-11-14T17:17:14.789Z,59.40
2018-11-14T17:19:43.141Z,60.03
2018-11-14T17:22:11.520Z,76.50
2018-11-14T17:24:39.858Z,61.67
2018-11-14T17:27:08.186Z,62.70
2018-11-14T17:29:36.536Z,59.97
2018-11-14T17:32:06.053Z,76.17
2018-11-14T17:34:34.561Z,71.33
2018-11-14T17:37:02.982Z,73.13
2018-11-14T17:39:31.316Z,57.20
2018-11-14T17:41:59.860Z,57.20
2018-11-14T17:44:28.054Z,55.77
2018-11-14T17:46:56.378Z,58.80
2018-11-14T17:49:24.720Z,68.03
2018-11-14T17:51:53.052Z,68.07
2018-11-14T17:54:21.402Z,68.73
2018-11-14T17:56:49.720Z,61.50
2018-11-14T17:59:18.080Z,81.15
2018-11-14T18:01:46.497Z,75.13
2018-11-14T18:04:14.860Z,61.43
2018-11-14T18:06:43.193Z,74.90
2018-11-14T18:09:13.499Z,55.73
2018-11-14T18:11:42.064Z,67.73
2018-11-14T18:14:10.504Z,63.90
2018-11-14T18:16:39.338Z,68.67
2018-11-14T18:19:07.949Z,66.43
2018-11-14T18:21:36.292Z,58.50
2018-11-14T18:24:05.181Z,73.50
2018-11-14T18:26:33.570Z,64.47
2018-11-14T18:29:01.911Z,57.80
2018-11-14T18:31:30.200Z,58.73
2018-11-14T18:33:58.503Z,59.97
2018-11-14T18:36:26.892Z,52.33
2018-11-14T18:38:55.155Z,49.10
2018-11-14T18:41:23.451Z,51.40
2018-11-14T18:43:51.785Z,59.90
2018-11-14T18:46:20.257Z,52.03
2018-11-14T18:48:48.698Z,48.80
2018-11-14T18:51:17.025Z,49.97
2018-11-14T18:53:45.360Z,49.63
2018-11-14T18:56:13.764Z,44.97
2018-11-14T18:58:42.105Z,53.77
2018-11-14T19:01:10.425Z,52.07
2018-11-14T19:03:38.769Z,49.50
2018-11-14T19:06:07.102Z,51.13
2018-11-14T19:08:35.432Z,58.77
2018-11-14T19:11:03.741Z,42.67
2018-11-14T19:13:32.137Z,48.93
2018-11-14T19:16:00.604Z,38.57
2018-11-14T19:18:28.987Z,38.33
2018-11-14T19:20:57.261Z,46.33
2018-11-14T19:23:25.610Z,42.57
2018-11-14T19:25:53.944Z,43.80
2018-11-14T19:28:22.277Z,37.50
2018-11-14T19:30:50.705Z,45.13
2018-11-14T19:33:18.973Z,49.30
2018-11-14T19:35:47.298Z,50.47
2018-11-14T19:38:15.640Z,45.07
2018-11-14T19:40:43.998Z,47.57
2018-11-14T19:43:12.325Z,36.97
2018-11-14T19:45:41.502Z,41.87
2018-11-14T19:48:09.956Z,35.70
2018-11-14T19:50:38.327Z,40.30
2018-11-14T19:53:06.848Z,39.97
2018-11-14T19:55:35.972Z,34.90
2018-11-14T19:58:05.000Z,44.73
2018-11-14T20:00:34.525Z,68.00
2018-11-14T20:03:02.911Z,41.43
2018-11-14T20:05:31.245Z,39.73
2018-11-14T20:07:59.569Z,39.00
2018-11-14T20:10:30.399Z,52.47
2018-11-14T20:12:58.645Z,43.83
2018-11-14T20:15:30.680Z,38.10
2018-11-14T20:17:59.010Z,40.83
2018-11-14T20:20:29.633Z,37.23
2018-11-14T20:22:57.980Z,39.60
2018-11-14T20:25:26.322Z,39.30
2018-11-14T20:27:54.648Z,31.77
2018-11-14T20:30:25.485Z,31.27
2018-11-14T20:32:54.796Z,39.97
2018-11-14T20:35:23.988Z,37.80
2018-11-14T20:37:52.325Z,41.60
2018-11-14T20:40:21.705Z,33.77
2018-11-14T20:42:50.928Z,32.27
2018-11-14T20:45:26.905Z,33.33
2018-11-14T20:47:55.322Z,38.33
2018-11-14T20:50:24.507Z,47.17
2018-11-14T20:52:57.096Z,39.00
2018-11-14T20:55:25.945Z,38.43
2018-11-14T20:57:54.820Z,33.97
2018-11-14T21:00:28.421Z,34.40
2018-11-14T21:02:57.213Z,31.80
2018-11-14T21:05:26.149Z,30.70
2018-11-14T21:07:54.837Z,28.10
2018-11-14T21:10:25.594Z,28.50
2018-11-14T21:12:54.825Z,38.73
2018-11-14T21:15:24.564Z,27.90
2018-11-14T21:17:53.664Z,30.37
2018-11-14T21:20:22.008Z,34.88
2018-11-14T21:22:50.362Z,49.20
2018-11-14T21:25:19.832Z,25.90
2018-11-14T21:27:48.705Z,27.33
2018-11-14T21:30:19.357Z,37.37
2018-11-14T21:32:47.691Z,31.00
2018-11-14T21:35:19.476Z,34.10
2018-11-14T21:37:49.301Z,33.37
2018-11-14T21:40:17.711Z,32.60
2018-11-14T21:42:46.049Z,34.37
2018-11-14T21:45:16.059Z,35.60
2018-11-14T21:47:49.544Z,38.63
2018-11-14T21:50:18.706Z,32.70
2018-11-14T21:52:47.457Z,29.73
2018-11-14T21:55:15.829Z,26.40
2018-11-14T21:57:44.209Z,34.33
2018-11-14T22:00:14.908Z,27.90
2018-11-14T22:02:44.776Z,28.07
2018-11-14T22:05:13.096Z,34.77
2018-11-14T22:07:41.436Z,33.67
2018-11-14T22:10:12.820Z,27.53
2018-11-14T22:12:41.740Z,34.87
2018-11-14T22:15:12.468Z,34.77
2018-11-14T22:17:41.120Z,38.43
2018-11-14T22:20:11.560Z,28.67
2018-11-14T22:22:40.684Z,27.00
2018-11-14T22:25:09.739Z,29.20
2018-11-14T22:27:38.072Z,27.20
2018-11-14T22:30:10.544Z,40.43
2018-11-14T22:32:38.859Z,30.83
2018-11-14T22:35:08.634Z,26.93
2018-11-14T22:37:36.940Z,23.67
2018-11-14T22:40:06.300Z,25.80
2018-11-14T22:42:34.624Z,23.40
2018-11-14T22:45:02.976Z,28.23
2018-11-14T22:47:31.388Z,25.10
2018-11-14T22:49:59.711Z,30.07
2018-11-14T22:52:28.044Z,24.63
2018-11-14T22:54:56.484Z,27.37
2018-11-14T22:57:24.816Z,29.67
2018-11-14T22:59:53.495Z,26.50
2018-11-14T23:02:21.832Z,37.63
2018-11-14T23:04:50.172Z,36.07
2018-11-14T23:07:18.507Z,25.03
2018-11-14T23:09:46.916Z,29.80
2018-11-14T23:12:15.248Z,25.37
2018-11-14T23:14:43.573Z,41.90
2018-11-14T23:17:11.892Z,25.33
2018-11-14T23:19:40.220Z,35.57
2018-11-14T23:22:08.531Z,34.10
2018-11-14T23:24:36.848Z,27.73
2018-11-14T23:27:05.568Z,30.10
2018-11-14T23:29:33.935Z,27.20
2018-11-14T23:32:02.310Z,26.50
2018-11-14T23:34:30.640Z,34.13
2018-11-14T23:36:59.269Z,24.50
2018-11-14T23:39:27.576Z,29.77
2018-11-14T23:41:55.896Z,34.03
2018-11-14T23:44:24.224Z,28.80
2018-11-14T23:46:52.540Z,30.13
2018-11-14T23:49:20.859Z,21.37
2018-11-14T23:51:49.209Z,27.00
2018-11-14T23:54:17.536Z,25.70
2018-11-14T23:56:45.860Z,32.67
2018-11-14T23:59:14.212Z,32.37
